Terminal Aerodrome Forecast
Issued by NWS Topeka, KS

Home | Current Version | Previous Version | Text Only | Print | Product List | Glossary Off
Versions: 1 2 3 4 5 6 7 8 9 10 11 12 13 14 15 16 17

000
FTUS43 KTOP 250822 AAA
TAFTOP
TAF AMD
KTOP 250822Z 2508/2606 VRB05KT P6SM BKN200
     FM251000 15007KT P6SM SCT060
     FM260100 16007KT P6SM SCT050 BKN120=

USA.gov is the U.S. government's official web portal to all federal, state and local government web resources and services.